sensor_id;sensor_type;location;lat;lon;timestamp;P1;durP1;ratioP1;P2;durP2;ratioP2
21339;SDS011;10828;47.064;15.422;2022-12-07T00:01:45;14.40;;;4.47;;
21339;SDS011;10828;47.064;15.422;2022-12-07T00:04:18;9.07;;;4.00;;
21339;SDS011;10828;47.064;15.422;2022-12-07T00:06:46;13.83;;;4.30;;
21339;SDS011;10828;47.064;15.422;2022-12-07T00:09:16;9.87;;;3.70;;
21339;SDS011;10828;47.064;15.422;2022-12-07T00:11:43;12.80;;;3.93;;
21339;SDS011;10828;47.064;15.422;2022-12-07T00:14:12;11.90;;;5.00;;
21339;SDS011;10828;47.064;15.422;2022-12-07T00:16:40;8.30;;;3.93;;
21339;SDS011;10828;47.064;15.422;2022-12-07T00:19:08;13.53;;;4.53;;
21339;SDS011;10828;47.064;15.422;2022-12-07T00:21:35;9.20;;;4.73;;
21339;SDS011;10828;47.064;15.422;2022-12-07T00:24:03;13.23;;;4.17;;
21339;SDS011;10828;47.064;15.422;2022-12-07T00:26:35;12.70;;;3.70;;
21339;SDS011;10828;47.064;15.422;2022-12-07T00:29:05;10.77;;;4.30;;
21339;SDS011;10828;47.064;15.422;2022-12-07T00:31:39;20.00;;;4.83;;
21339;SDS011;10828;47.064;15.422;2022-12-07T00:34:18;9.30;;;4.30;;
21339;SDS011;10828;47.064;15.422;2022-12-07T00:36:46;10.47;;;4.13;;
21339;SDS011;10828;47.064;15.422;2022-12-07T00:39:13;9.87;;;3.47;;
21339;SDS011;10828;47.064;15.422;2022-12-07T00:41:39;7.50;;;3.47;;
21339;SDS011;10828;47.064;15.422;2022-12-07T00:44:05;12.80;;;4.17;;
21339;SDS011;10828;47.064;15.422;2022-12-07T00:46:33;9.93;;;3.93;;
21339;SDS011;10828;47.064;15.422;2022-12-07T00:48:59;10.63;;;4.23;;
21339;SDS011;10828;47.064;15.422;2022-12-07T00:51:26;10.63;;;4.40;;
21339;SDS011;10828;47.064;15.422;2022-12-07T00:53:52;15.60;;;5.27;;
21339;SDS011;10828;47.064;15.422;2022-12-07T00:56:23;10.93;;;4.60;;
21339;SDS011;10828;47.064;15.422;2022-12-07T00:58:54;15.17;;;5.23;;
21339;SDS011;10828;47.064;15.422;2022-12-07T01:01:28;12.70;;;4.43;;
21339;SDS011;10828;47.064;15.422;2022-12-07T01:03:56;10.43;;;4.27;;
21339;SDS011;10828;47.064;15.422;2022-12-07T01:06:23;11.10;;;3.63;;
21339;SDS011;10828;47.064;15.422;2022-12-07T01:08:49;13.30;;;5.57;;
21339;SDS011;10828;47.064;15.422;2022-12-07T01:11:19;17.03;;;5.20;;
21339;SDS011;10828;47.064;15.422;2022-12-07T01:13:51;13.43;;;4.00;;
21339;SDS011;10828;47.064;15.422;2022-12-07T01:16:22;13.50;;;5.10;;
21339;SDS011;10828;47.064;15.422;2022-12-07T01:18:50;11.63;;;4.30;;
21339;SDS011;10828;47.064;15.422;2022-12-07T01:21:23;11.13;;;4.80;;
21339;SDS011;10828;47.064;15.422;2022-12-07T01:23:53;14.60;;;5.43;;
21339;SDS011;10828;47.064;15.422;2022-12-07T01:26:20;13.80;;;4.93;;
21339;SDS011;10828;47.064;15.422;2022-12-07T01:28:48;18.70;;;5.33;;
21339;SDS011;10828;47.064;15.422;2022-12-07T01:31:20;11.73;;;4.93;;
21339;SDS011;10828;47.064;15.422;2022-12-07T01:33:49;14.10;;;5.63;;
21339;SDS011;10828;47.064;15.422;2022-12-07T01:36:17;10.30;;;3.97;;
21339;SDS011;10828;47.064;15.422;2022-12-07T01:38:55;12.23;;;4.47;;
21339;SDS011;10828;47.064;15.422;2022-12-07T01:41:24;14.50;;;5.93;;
21339;SDS011;10828;47.064;15.422;2022-12-07T01:46:55;12.57;;;5.17;;
21339;SDS011;10828;47.064;15.422;2022-12-07T01:49:30;14.93;;;6.13;;
21339;SDS011;10828;47.064;15.422;2022-12-07T01:54:51;13.77;;;5.07;;
21339;SDS011;10828;47.064;15.422;2022-12-07T01:57:23;14.17;;;5.27;;
21339;SDS011;10828;47.064;15.422;2022-12-07T01:59:51;14.57;;;4.60;;
21339;SDS011;10828;47.064;15.422;2022-12-07T02:02:23;10.07;;;4.13;;
21339;SDS011;10828;47.064;15.422;2022-12-07T02:05:01;17.87;;;5.00;;
21339;SDS011;10828;47.064;15.422;2022-12-07T02:07:29;11.97;;;3.90;;
21339;SDS011;10828;47.064;15.422;2022-12-07T02:09:56;16.63;;;5.00;;
21339;SDS011;10828;47.064;15.422;2022-12-07T02:12:22;11.93;;;4.87;;
21339;SDS011;10828;47.064;15.422;2022-12-07T02:31:37;9.70;;;3.83;;
21339;SDS011;10828;47.064;15.422;2022-12-07T02:34:18;9.77;;;3.30;;
21339;SDS011;10828;47.064;15.422;2022-12-07T02:37:00;10.03;;;4.13;;
21339;SDS011;10828;47.064;15.422;2022-12-07T02:39:46;6.90;;;2.87;;
21339;SDS011;10828;47.064;15.422;2022-12-07T02:42:23;10.93;;;4.47;;
21339;SDS011;10828;47.064;15.422;2022-12-07T02:44:53;9.57;;;3.90;;
21339;SDS011;10828;47.064;15.422;2022-12-07T02:47:23;12.03;;;3.20;;
21339;SDS011;10828;47.064;15.422;2022-12-07T02:49:58;15.70;;;3.67;;
21339;SDS011;10828;47.064;15.422;2022-12-07T02:52:23;10.13;;;4.00;;
21339;SDS011;10828;47.064;15.422;2022-12-07T02:54:51;15.27;;;4.23;;
21339;SDS011;10828;47.064;15.422;2022-12-07T02:57:23;8.30;;;3.10;;
21339;SDS011;10828;47.064;15.422;2022-12-07T03:00:11;7.90;;;3.27;;
21339;SDS011;10828;47.064;15.422;2022-12-07T03:02:51;6.03;;;2.13;;
21339;SDS011;10828;47.064;15.422;2022-12-07T03:05:37;9.17;;;4.20;;
21339;SDS011;10828;47.064;15.422;2022-12-07T03:13:42;8.27;;;3.70;;
21339;SDS011;10828;47.064;15.422;2022-12-07T03:21:21;7.33;;;3.30;;
21339;SDS011;10828;47.064;15.422;2022-12-07T03:23:56;6.63;;;3.07;;
21339;SDS011;10828;47.064;15.422;2022-12-07T03:26:30;7.37;;;2.83;;
21339;SDS011;10828;47.064;15.422;2022-12-07T03:29:02;10.23;;;3.03;;
21339;SDS011;10828;47.064;15.422;2022-12-07T03:31:33;6.47;;;3.00;;
21339;SDS011;10828;47.064;15.422;2022-12-07T03:36:47;6.97;;;2.43;;
21339;SDS011;10828;47.064;15.422;2022-12-07T03:39:41;8.93;;;3.80;;
21339;SDS011;10828;47.064;15.422;2022-12-07T03:42:15;6.13;;;2.50;;
21339;SDS011;10828;47.064;15.422;2022-12-07T03:44:41;4.23;;;2.40;;
21339;SDS011;10828;47.064;15.422;2022-12-07T03:49:56;8.80;;;3.20;;
21339;SDS011;10828;47.064;15.422;2022-12-07T03:55:06;4.70;;;2.23;;
21339;SDS011;10828;47.064;15.422;2022-12-07T03:57:38;6.20;;;2.37;;
21339;SDS011;10828;47.064;15.422;2022-12-07T04:00:07;8.73;;;3.83;;
21339;SDS011;10828;47.064;15.422;2022-12-07T04:02:37;9.03;;;4.17;;
21339;SDS011;10828;47.064;15.422;2022-12-07T04:05:05;4.63;;;2.40;;
21339;SDS011;10828;47.064;15.422;2022-12-07T04:07:32;4.67;;;1.97;;
21339;SDS011;10828;47.064;15.422;2022-12-07T04:09:58;6.47;;;2.53;;
21339;SDS011;10828;47.064;15.422;2022-12-07T04:12:24;6.37;;;3.00;;
21339;SDS011;10828;47.064;15.422;2022-12-07T04:14:50;10.63;;;3.77;;
21339;SDS011;10828;47.064;15.422;2022-12-07T04:17:17;9.63;;;2.83;;
21339;SDS011;10828;47.064;15.422;2022-12-07T04:19:44;6.23;;;2.40;;
21339;SDS011;10828;47.064;15.422;2022-12-07T04:22:10;7.03;;;3.17;;
21339;SDS011;10828;47.064;15.422;2022-12-07T04:24:38;6.00;;;3.20;;
21339;SDS011;10828;47.064;15.422;2022-12-07T04:27:04;5.97;;;3.03;;
21339;SDS011;10828;47.064;15.422;2022-12-07T04:29:32;6.47;;;2.33;;
21339;SDS011;10828;47.064;15.422;2022-12-07T04:31:58;8.07;;;3.03;;
21339;SDS011;10828;47.064;15.422;2022-12-07T04:34:24;7.13;;;3.40;;
21339;SDS011;10828;47.064;15.422;2022-12-07T04:36:50;12.77;;;4.83;;
21339;SDS011;10828;47.064;15.422;2022-12-07T04:39:27;8.90;;;3.07;;
21339;SDS011;10828;47.064;15.422;2022-12-07T04:41:55;5.63;;;3.20;;
21339;SDS011;10828;47.064;15.422;2022-12-07T04:44:22;17.90;;;2.93;;
21339;SDS011;10828;47.064;15.422;2022-12-07T04:46:50;11.03;;;3.03;;
21339;SDS011;10828;47.064;15.422;2022-12-07T04:49:16;10.83;;;3.87;;
21339;SDS011;10828;47.064;15.422;2022-12-07T04:51:49;9.90;;;3.07;;
21339;SDS011;10828;47.064;15.422;2022-12-07T04:54:17;8.43;;;3.03;;
21339;SDS011;10828;47.064;15.422;2022-12-07T04:56:44;8.80;;;2.63;;
21339;SDS011;10828;47.064;15.422;2022-12-07T04:59:10;6.13;;;2.17;;
21339;SDS011;10828;47.064;15.422;2022-12-07T05:01:37;5.80;;;3.30;;
21339;SDS011;10828;47.064;15.422;2022-12-07T05:04:03;10.43;;;3.57;;
21339;SDS011;10828;47.064;15.422;2022-12-07T05:06:28;5.60;;;2.60;;
21339;SDS011;10828;47.064;15.422;2022-12-07T05:08:54;8.77;;;2.80;;
21339;SDS011;10828;47.064;15.422;2022-12-07T05:11:21;5.93;;;2.20;;
21339;SDS011;10828;47.064;15.422;2022-12-07T05:14:12;6.10;;;2.50;;
21339;SDS011;10828;47.064;15.422;2022-12-07T05:16:44;6.93;;;2.60;;
21339;SDS011;10828;47.064;15.422;2022-12-07T05:19:12;10.73;;;3.30;;
21339;SDS011;10828;47.064;15.422;2022-12-07T05:21:38;9.53;;;3.60;;
21339;SDS011;10828;47.064;15.422;2022-12-07T05:24:06;6.30;;;2.63;;
21339;SDS011;10828;47.064;15.422;2022-12-07T05:26:33;7.47;;;3.30;;
21339;SDS011;10828;47.064;15.422;2022-12-07T05:29:00;7.73;;;3.63;;
21339;SDS011;10828;47.064;15.422;2022-12-07T05:31:26;8.47;;;3.23;;
21339;SDS011;10828;47.064;15.422;2022-12-07T05:33:53;11.13;;;3.77;;
21339;SDS011;10828;47.064;15.422;2022-12-07T05:36:19;6.53;;;3.00;;
21339;SDS011;10828;47.064;15.422;2022-12-07T05:38:45;6.20;;;3.13;;
21339;SDS011;10828;47.064;15.422;2022-12-07T05:41:17;7.27;;;3.37;;
21339;SDS011;10828;47.064;15.422;2022-12-07T05:44:03;4.73;;;2.70;;
21339;SDS011;10828;47.064;15.422;2022-12-07T05:46:31;14.60;;;4.37;;
21339;SDS011;10828;47.064;15.422;2022-12-07T05:48:58;9.17;;;3.97;;
21339;SDS011;10828;47.064;15.422;2022-12-07T05:51:25;7.80;;;2.77;;
21339;SDS011;10828;47.064;15.422;2022-12-07T05:53:51;3.93;;;2.13;;
21339;SDS011;10828;47.064;15.422;2022-12-07T05:56:18;12.07;;;3.73;;
21339;SDS011;10828;47.064;15.422;2022-12-07T05:58:45;5.67;;;3.10;;
21339;SDS011;10828;47.064;15.422;2022-12-07T06:01:29;7.13;;;2.37;;
21339;SDS011;10828;47.064;15.422;2022-12-07T06:03:57;10.03;;;3.23;;
21339;SDS011;10828;47.064;15.422;2022-12-07T06:06:22;9.87;;;3.20;;
21339;SDS011;10828;47.064;15.422;2022-12-07T06:08:48;8.53;;;3.43;;
21339;SDS011;10828;47.064;15.422;2022-12-07T06:11:16;6.40;;;2.97;;
21339;SDS011;10828;47.064;15.422;2022-12-07T06:14:02;7.50;;;2.73;;
21339;SDS011;10828;47.064;15.422;2022-12-07T06:16:30;6.13;;;2.93;;
21339;SDS011;10828;47.064;15.422;2022-12-07T06:18:55;7.30;;;3.23;;
21339;SDS011;10828;47.064;15.422;2022-12-07T06:21:22;6.00;;;2.93;;
21339;SDS011;10828;47.064;15.422;2022-12-07T06:23:49;10.47;;;3.70;;
21339;SDS011;10828;47.064;15.422;2022-12-07T06:26:16;9.30;;;4.30;;
21339;SDS011;10828;47.064;15.422;2022-12-07T06:28:43;5.90;;;3.00;;
21339;SDS011;10828;47.064;15.422;2022-12-07T06:31:08;6.57;;;3.43;;
21339;SDS011;10828;47.064;15.422;2022-12-07T06:33:35;14.87;;;4.53;;
21339;SDS011;10828;47.064;15.422;2022-12-07T06:36:03;7.30;;;3.17;;
21339;SDS011;10828;47.064;15.422;2022-12-07T06:38:35;9.20;;;3.67;;
21339;SDS011;10828;47.064;15.422;2022-12-07T06:41:06;5.60;;;3.00;;
21339;SDS011;10828;47.064;15.422;2022-12-07T06:43:33;10.33;;;3.57;;
21339;SDS011;10828;47.064;15.422;2022-12-07T06:45:59;9.13;;;4.00;;
21339;SDS011;10828;47.064;15.422;2022-12-07T06:48:26;5.27;;;3.23;;
21339;SDS011;10828;47.064;15.422;2022-12-07T06:50:52;4.97;;;2.27;;
21339;SDS011;10828;47.064;15.422;2022-12-07T06:53:18;6.97;;;3.13;;
21339;SDS011;10828;47.064;15.422;2022-12-07T06:55:47;11.63;;;3.83;;
21339;SDS011;10828;47.064;15.422;2022-12-07T06:58:13;10.33;;;4.07;;
21339;SDS011;10828;47.064;15.422;2022-12-07T07:00:40;12.03;;;4.90;;
21339;SDS011;10828;47.064;15.422;2022-12-07T07:03:06;8.33;;;3.50;;
21339;SDS011;10828;47.064;15.422;2022-12-07T07:05:34;8.07;;;3.03;;
21339;SDS011;10828;47.064;15.422;2022-12-07T07:07:59;8.57;;;4.10;;
21339;SDS011;10828;47.064;15.422;2022-12-07T07:10:26;6.70;;;2.77;;
21339;SDS011;10828;47.064;15.422;2022-12-07T07:12:52;16.13;;;4.77;;
21339;SDS011;10828;47.064;15.422;2022-12-07T07:15:19;11.07;;;4.30;;
21339;SDS011;10828;47.064;15.422;2022-12-07T07:17:45;10.87;;;3.83;;
21339;SDS011;10828;47.064;15.422;2022-12-07T07:20:12;11.83;;;4.13;;
21339;SDS011;10828;47.064;15.422;2022-12-07T07:22:40;10.23;;;3.40;;
21339;SDS011;10828;47.064;15.422;2022-12-07T07:25:06;14.03;;;4.13;;
21339;SDS011;10828;47.064;15.422;2022-12-07T07:27:32;10.60;;;4.20;;
21339;SDS011;10828;47.064;15.422;2022-12-07T07:30:10;9.30;;;5.37;;
21339;SDS011;10828;47.064;15.422;2022-12-07T07:32:42;13.60;;;4.37;;
21339;SDS011;10828;47.064;15.422;2022-12-07T07:35:08;8.50;;;4.43;;
21339;SDS011;10828;47.064;15.422;2022-12-07T07:37:40;10.20;;;3.57;;
21339;SDS011;10828;47.064;15.422;2022-12-07T07:40:07;9.50;;;3.73;;
21339;SDS011;10828;47.064;15.422;2022-12-07T07:42:35;8.53;;;3.33;;
21339;SDS011;10828;47.064;15.422;2022-12-07T07:45:01;12.40;;;3.53;;
21339;SDS011;10828;47.064;15.422;2022-12-07T07:47:29;16.23;;;4.30;;
21339;SDS011;10828;47.064;15.422;2022-12-07T07:49:58;11.83;;;3.70;;
21339;SDS011;10828;47.064;15.422;2022-12-07T07:52:24;10.53;;;4.50;;
21339;SDS011;10828;47.064;15.422;2022-12-07T07:54:50;16.60;;;5.77;;
21339;SDS011;10828;47.064;15.422;2022-12-07T07:57:17;20.93;;;6.57;;
21339;SDS011;10828;47.064;15.422;2022-12-07T07:59:44;12.97;;;4.83;;
21339;SDS011;10828;47.064;15.422;2022-12-07T08:02:15;11.97;;;3.67;;
21339;SDS011;10828;47.064;15.422;2022-12-07T08:04:43;6.17;;;3.13;;
21339;SDS011;10828;47.064;15.422;2022-12-07T08:07:12;11.47;;;4.70;;
21339;SDS011;10828;47.064;15.422;2022-12-07T08:09:39;13.47;;;3.90;;
21339;SDS011;10828;47.064;15.422;2022-12-07T08:12:08;13.33;;;4.53;;
21339;SDS011;10828;47.064;15.422;2022-12-07T08:14:35;14.43;;;4.90;;
21339;SDS011;10828;47.064;15.422;2022-12-07T08:17:02;12.30;;;4.83;;
21339;SDS011;10828;47.064;15.422;2022-12-07T08:19:29;15.70;;;5.07;;
21339;SDS011;10828;47.064;15.422;2022-12-07T08:21:55;20.17;;;5.37;;
21339;SDS011;10828;47.064;15.422;2022-12-07T08:24:22;10.57;;;4.63;;
21339;SDS011;10828;47.064;15.422;2022-12-07T08:26:48;13.37;;;5.73;;
21339;SDS011;10828;47.064;15.422;2022-12-07T08:29:15;14.83;;;4.17;;
21339;SDS011;10828;47.064;15.422;2022-12-07T08:31:43;15.30;;;5.60;;
21339;SDS011;10828;47.064;15.422;2022-12-07T08:34:12;12.67;;;5.17;;
21339;SDS011;10828;47.064;15.422;2022-12-07T08:36:39;20.53;;;5.53;;
21339;SDS011;10828;47.064;15.422;2022-12-07T08:39:07;18.13;;;6.20;;
21339;SDS011;10828;47.064;15.422;2022-12-07T08:41:34;15.13;;;5.27;;
21339;SDS011;10828;47.064;15.422;2022-12-07T08:46:46;15.03;;;5.10;;
21339;SDS011;10828;47.064;15.422;2022-12-07T08:49:20;13.63;;;5.03;;
21339;SDS011;10828;47.064;15.422;2022-12-07T08:51:57;14.87;;;5.70;;
21339;SDS011;10828;47.064;15.422;2022-12-07T08:54:23;25.30;;;5.97;;
21339;SDS011;10828;47.064;15.422;2022-12-07T08:56:50;11.90;;;5.70;;
21339;SDS011;10828;47.064;15.422;2022-12-07T08:59:20;14.47;;;4.73;;
21339;SDS011;10828;47.064;15.422;2022-12-07T09:01:46;23.00;;;6.60;;
21339;SDS011;10828;47.064;15.422;2022-12-07T09:04:13;12.93;;;5.77;;
21339;SDS011;10828;47.064;15.422;2022-12-07T09:06:41;14.67;;;5.67;;
21339;SDS011;10828;47.064;15.422;2022-12-07T09:09:06;11.43;;;5.33;;
21339;SDS011;10828;47.064;15.422;2022-12-07T09:11:36;17.23;;;6.77;;
21339;SDS011;10828;47.064;15.422;2022-12-07T09:14:04;21.17;;;5.97;;
21339;SDS011;10828;47.064;15.422;2022-12-07T09:16:31;12.63;;;5.40;;
21339;SDS011;10828;47.064;15.422;2022-12-07T09:18:57;21.23;;;6.33;;
21339;SDS011;10828;47.064;15.422;2022-12-07T09:21:24;13.47;;;5.27;;
21339;SDS011;10828;47.064;15.422;2022-12-07T09:23:51;18.10;;;5.83;;
21339;SDS011;10828;47.064;15.422;2022-12-07T09:26:19;12.07;;;5.37;;
21339;SDS011;10828;47.064;15.422;2022-12-07T09:28:45;18.10;;;5.03;;
21339;SDS011;10828;47.064;15.422;2022-12-07T09:31:11;21.47;;;8.40;;
21339;SDS011;10828;47.064;15.422;2022-12-07T09:33:36;25.07;;;6.20;;
21339;SDS011;10828;47.064;15.422;2022-12-07T09:36:02;13.13;;;6.03;;
21339;SDS011;10828;47.064;15.422;2022-12-07T09:38:30;12.60;;;5.10;;
21339;SDS011;10828;47.064;15.422;2022-12-07T09:40:57;13.73;;;5.80;;
21339;SDS011;10828;47.064;15.422;2022-12-07T09:43:28;18.47;;;5.63;;
21339;SDS011;10828;47.064;15.422;2022-12-07T09:45:55;22.30;;;6.33;;
21339;SDS011;10828;47.064;15.422;2022-12-07T09:48:34;16.37;;;6.50;;
21339;SDS011;10828;47.064;15.422;2022-12-07T09:51:14;22.27;;;5.97;;
21339;SDS011;10828;47.064;15.422;2022-12-07T09:53:49;17.67;;;5.53;;
21339;SDS011;10828;47.064;15.422;2022-12-07T09:56:16;18.00;;;6.77;;
21339;SDS011;10828;47.064;15.422;2022-12-07T09:58:47;29.33;;;6.47;;
21339;SDS011;10828;47.064;15.422;2022-12-07T10:01:18;18.20;;;6.67;;
21339;SDS011;10828;47.064;15.422;2022-12-07T10:03:48;17.87;;;6.43;;
21339;SDS011;10828;47.064;15.422;2022-12-07T10:06:22;16.43;;;5.53;;
21339;SDS011;10828;47.064;15.422;2022-12-07T10:08:48;17.37;;;7.50;;
21339;SDS011;10828;47.064;15.422;2022-12-07T10:11:14;18.80;;;7.37;;
21339;SDS011;10828;47.064;15.422;2022-12-07T10:13:49;23.87;;;6.90;;
21339;SDS011;10828;47.064;15.422;2022-12-07T10:22:02;19.40;;;5.93;;
21339;SDS011;10828;47.064;15.422;2022-12-07T10:24:46;13.30;;;5.80;;
21339;SDS011;10828;47.064;15.422;2022-12-07T10:27:26;17.13;;;5.80;;
21339;SDS011;10828;47.064;15.422;2022-12-07T10:29:57;15.00;;;6.90;;
21339;SDS011;10828;47.064;15.422;2022-12-07T10:32:31;25.13;;;8.13;;
21339;SDS011;10828;47.064;15.422;2022-12-07T10:37:52;13.40;;;5.40;;
21339;SDS011;10828;47.064;15.422;2022-12-07T10:40:30;20.43;;;6.47;;
21339;SDS011;10828;47.064;15.422;2022-12-07T10:45:32;18.67;;;7.13;;
21339;SDS011;10828;47.064;15.422;2022-12-07T11:13:16;22.40;;;9.70;;
21339;SDS011;10828;47.064;15.422;2022-12-07T11:22:23;25.23;;;6.57;;
21339;SDS011;10828;47.064;15.422;2022-12-07T11:40:56;18.07;;;6.57;;
21339;SDS011;10828;47.064;15.422;2022-12-07T11:43:59;23.87;;;8.17;;
21339;SDS011;10828;47.064;15.422;2022-12-07T11:52:11;23.80;;;8.20;;
21339;SDS011;10828;47.064;15.422;2022-12-07T11:54:47;20.57;;;6.93;;
21339;SDS011;10828;47.064;15.422;2022-12-07T12:00:13;23.33;;;8.03;;
21339;SDS011;10828;47.064;15.422;2022-12-07T12:05:19;25.73;;;8.60;;
21339;SDS011;10828;47.064;15.422;2022-12-07T12:07:53;21.23;;;7.47;;
21339;SDS011;10828;47.064;15.422;2022-12-07T12:11:20;19.53;;;7.40;;
21339;SDS011;10828;47.064;15.422;2022-12-07T12:13:47;20.23;;;6.70;;
21339;SDS011;10828;47.064;15.422;2022-12-07T12:16:50;25.83;;;8.50;;
21339;SDS011;10828;47.064;15.422;2022-12-07T12:21:54;26.03;;;7.97;;
21339;SDS011;10828;47.064;15.422;2022-12-07T12:24:25;29.07;;;8.50;;
21339;SDS011;10828;47.064;15.422;2022-12-07T12:27:19;16.63;;;6.07;;
21339;SDS011;10828;47.064;15.422;2022-12-07T12:29:54;24.63;;;7.23;;
21339;SDS011;10828;47.064;15.422;2022-12-07T12:41:00;23.23;;;6.80;;
21339;SDS011;10828;47.064;15.422;2022-12-07T12:51:57;22.43;;;7.40;;
21339;SDS011;10828;47.064;15.422;2022-12-07T12:57:28;28.23;;;9.87;;
21339;SDS011;10828;47.064;15.422;2022-12-07T13:00:01;18.57;;;7.20;;
21339;SDS011;10828;47.064;15.422;2022-12-07T13:05:18;28.47;;;9.50;;
21339;SDS011;10828;47.064;15.422;2022-12-07T13:07:50;20.10;;;7.80;;
21339;SDS011;10828;47.064;15.422;2022-12-07T13:10:38;20.63;;;7.10;;
21339;SDS011;10828;47.064;15.422;2022-12-07T13:15:48;19.07;;;6.77;;
21339;SDS011;10828;47.064;15.422;2022-12-07T13:28:46;20.90;;;7.27;;
21339;SDS011;10828;47.064;15.422;2022-12-07T13:34:46;18.10;;;6.57;;
21339;SDS011;10828;47.064;15.422;2022-12-07T13:37:10;18.47;;;7.03;;
21339;SDS011;10828;47.064;15.422;2022-12-07T13:39:46;20.83;;;8.67;;
21339;SDS011;10828;47.064;15.422;2022-12-07T13:45:13;19.57;;;7.77;;
21339;SDS011;10828;47.064;15.422;2022-12-07T13:47:49;24.80;;;7.00;;
21339;SDS011;10828;47.064;15.422;2022-12-07T13:52:56;20.20;;;8.23;;
21339;SDS011;10828;47.064;15.422;2022-12-07T13:55:24;22.70;;;7.97;;
21339;SDS011;10828;47.064;15.422;2022-12-07T13:57:53;19.73;;;6.47;;
21339;SDS011;10828;47.064;15.422;2022-12-07T14:00:23;20.07;;;6.33;;
21339;SDS011;10828;47.064;15.422;2022-12-07T14:06:13;19.57;;;6.97;;
21339;SDS011;10828;47.064;15.422;2022-12-07T14:08:42;15.37;;;7.30;;
21339;SDS011;10828;47.064;15.422;2022-12-07T14:11:10;18.90;;;7.27;;
21339;SDS011;10828;47.064;15.422;2022-12-07T14:16:28;17.73;;;7.37;;
21339;SDS011;10828;47.064;15.422;2022-12-07T14:19:04;21.33;;;6.57;;
21339;SDS011;10828;47.064;15.422;2022-12-07T14:21:47;24.70;;;7.43;;
21339;SDS011;10828;47.064;15.422;2022-12-07T14:24:20;18.17;;;6.47;;
21339;SDS011;10828;47.064;15.422;2022-12-07T14:26:49;20.57;;;7.23;;
21339;SDS011;10828;47.064;15.422;2022-12-07T14:29:49;19.80;;;7.37;;
21339;SDS011;10828;47.064;15.422;2022-12-07T14:32:24;18.87;;;6.40;;
21339;SDS011;10828;47.064;15.422;2022-12-07T14:34:57;17.20;;;6.97;;
21339;SDS011;10828;47.064;15.422;2022-12-07T14:37:23;15.73;;;6.70;;
21339;SDS011;10828;47.064;15.422;2022-12-07T14:39:51;14.23;;;6.37;;
21339;SDS011;10828;47.064;15.422;2022-12-07T14:42:24;18.67;;;6.30;;
21339;SDS011;10828;47.064;15.422;2022-12-07T14:44:52;16.47;;;6.13;;
21339;SDS011;10828;47.064;15.422;2022-12-07T14:47:19;14.83;;;6.17;;
21339;SDS011;10828;47.064;15.422;2022-12-07T14:49:51;14.90;;;6.60;;
21339;SDS011;10828;47.064;15.422;2022-12-07T14:52:25;13.80;;;6.20;;
21339;SDS011;10828;47.064;15.422;2022-12-07T14:54:55;17.23;;;7.03;;
21339;SDS011;10828;47.064;15.422;2022-12-07T14:57:21;15.67;;;6.27;;
21339;SDS011;10828;47.064;15.422;2022-12-07T15:02:41;12.50;;;5.57;;
21339;SDS011;10828;47.064;15.422;2022-12-07T15:05:08;14.63;;;5.53;;
21339;SDS011;10828;47.064;15.422;2022-12-07T15:07:35;14.70;;;6.10;;
21339;SDS011;10828;47.064;15.422;2022-12-07T15:10:02;16.30;;;5.87;;
21339;SDS011;10828;47.064;15.422;2022-12-07T15:12:30;22.07;;;6.03;;
21339;SDS011;10828;47.064;15.422;2022-12-07T15:14:57;17.90;;;6.00;;
21339;SDS011;10828;47.064;15.422;2022-12-07T15:17:23;23.97;;;7.43;;
21339;SDS011;10828;47.064;15.422;2022-12-07T15:19:51;17.87;;;6.80;;
21339;SDS011;10828;47.064;15.422;2022-12-07T15:22:19;15.13;;;5.97;;
21339;SDS011;10828;47.064;15.422;2022-12-07T15:24:47;15.00;;;6.00;;
21339;SDS011;10828;47.064;15.422;2022-12-07T15:27:14;15.87;;;6.40;;
21339;SDS011;10828;47.064;15.422;2022-12-07T15:29:42;22.57;;;8.93;;
21339;SDS011;10828;47.064;15.422;2022-12-07T15:32:09;19.50;;;7.37;;
21339;SDS011;10828;47.064;15.422;2022-12-07T15:34:37;17.90;;;7.37;;
21339;SDS011;10828;47.064;15.422;2022-12-07T15:37:05;17.73;;;6.17;;
21339;SDS011;10828;47.064;15.422;2022-12-07T15:39:32;17.53;;;6.70;;
21339;SDS011;10828;47.064;15.422;2022-12-07T15:42:06;16.30;;;7.17;;
21339;SDS011;10828;47.064;15.422;2022-12-07T15:44:38;25.83;;;7.17;;
21339;SDS011;10828;47.064;15.422;2022-12-07T15:47:22;16.70;;;6.10;;
21339;SDS011;10828;47.064;15.422;2022-12-07T15:49:49;17.30;;;7.97;;
21339;SDS011;10828;47.064;15.422;2022-12-07T15:52:16;12.20;;;5.63;;
21339;SDS011;10828;47.064;15.422;2022-12-07T15:54:46;20.27;;;7.00;;
21339;SDS011;10828;47.064;15.422;2022-12-07T15:57:14;21.77;;;7.93;;
21339;SDS011;10828;47.064;15.422;2022-12-07T15:59:42;17.87;;;7.23;;
21339;SDS011;10828;47.064;15.422;2022-12-07T16:02:10;19.30;;;7.70;;
21339;SDS011;10828;47.064;15.422;2022-12-07T16:04:37;20.87;;;7.30;;
21339;SDS011;10828;47.064;15.422;2022-12-07T16:07:04;20.00;;;8.17;;
21339;SDS011;10828;47.064;15.422;2022-12-07T16:09:31;14.93;;;6.23;;
21339;SDS011;10828;47.064;15.422;2022-12-07T16:12:02;19.03;;;6.23;;
21339;SDS011;10828;47.064;15.422;2022-12-07T16:14:27;14.67;;;5.90;;
21339;SDS011;10828;47.064;15.422;2022-12-07T16:16:53;12.97;;;5.63;;
21339;SDS011;10828;47.064;15.422;2022-12-07T16:19:20;15.87;;;6.33;;
21339;SDS011;10828;47.064;15.422;2022-12-07T16:21:47;15.17;;;5.37;;
21339;SDS011;10828;47.064;15.422;2022-12-07T16:24:14;16.23;;;5.77;;
21339;SDS011;10828;47.064;15.422;2022-12-07T16:26:42;18.13;;;5.93;;
21339;SDS011;10828;47.064;15.422;2022-12-07T16:29:12;12.03;;;6.23;;
21339;SDS011;10828;47.064;15.422;2022-12-07T16:31:39;13.97;;;5.40;;
21339;SDS011;10828;47.064;15.422;2022-12-07T16:36:55;21.00;;;5.50;;
21339;SDS011;10828;47.064;15.422;2022-12-07T16:39:21;15.13;;;5.33;;
21339;SDS011;10828;47.064;15.422;2022-12-07T16:41:47;11.80;;;5.23;;
21339;SDS011;10828;47.064;15.422;2022-12-07T16:44:13;11.60;;;4.53;;
21339;SDS011;10828;47.064;15.422;2022-12-07T16:46:39;14.53;;;6.30;;
21339;SDS011;10828;47.064;15.422;2022-12-07T16:49:06;19.77;;;7.23;;
21339;SDS011;10828;47.064;15.422;2022-12-07T16:51:36;16.77;;;7.03;;
21339;SDS011;10828;47.064;15.422;2022-12-07T16:54:09;13.43;;;5.70;;
21339;SDS011;10828;47.064;15.422;2022-12-07T16:56:36;14.03;;;5.97;;
21339;SDS011;10828;47.064;15.422;2022-12-07T16:59:04;17.43;;;6.40;;
21339;SDS011;10828;47.064;15.422;2022-12-07T17:01:30;16.70;;;6.27;;
21339;SDS011;10828;47.064;15.422;2022-12-07T17:03:58;13.67;;;6.27;;
21339;SDS011;10828;47.064;15.422;2022-12-07T17:06:27;15.83;;;6.53;;
21339;SDS011;10828;47.064;15.422;2022-12-07T17:08:55;15.80;;;5.90;;
21339;SDS011;10828;47.064;15.422;2022-12-07T17:11:30;23.87;;;7.30;;
21339;SDS011;10828;47.064;15.422;2022-12-07T17:13:59;16.97;;;6.47;;
21339;SDS011;10828;47.064;15.422;2022-12-07T17:16:45;17.20;;;4.87;;
21339;SDS011;10828;47.064;15.422;2022-12-07T17:19:13;13.97;;;6.27;;
21339;SDS011;10828;47.064;15.422;2022-12-07T17:21:41;16.33;;;5.50;;
21339;SDS011;10828;47.064;15.422;2022-12-07T17:24:10;19.23;;;7.80;;
21339;SDS011;10828;47.064;15.422;2022-12-07T17:26:45;16.57;;;7.20;;
21339;SDS011;10828;47.064;15.422;2022-12-07T17:29:13;18.80;;;6.83;;
21339;SDS011;10828;47.064;15.422;2022-12-07T17:31:47;23.63;;;7.43;;
21339;SDS011;10828;47.064;15.422;2022-12-07T17:34:17;13.10;;;6.33;;
21339;SDS011;10828;47.064;15.422;2022-12-07T17:36:45;14.10;;;5.67;;